Main page
METAR-TAF:

METAR-TAF

Airports :

Diori Hamani International Airport

Niamey, Niger

latitude: 13-29N, longitude: 002-10E, elevation: 223 m

Current weather observation

The report was made 1 hour and 9 minutes ago, at 03:00 UTC
Wind 4 kt from the East
Temperature 23°C
Humidity 23%
Pressure 1013 hPa
Visibility: 3000 m
widespread dust

METAR: DRRN 220300Z 08004KT 3000 DU NSC 23/01 Q1013 NOSIG

Time: 05:09 (04:09 UTC)

Forecast

The report was made 5 hours and 9 minutes ago, at 23:00 UTC
Forecast valid from 22 at 00 UTC to 23 at 06 UTC
Wind 10 kt from the East/Northeast
Visibility: 2000 m
widespread dust
Temporary
from 22 at 06 UTC to 22 at 12 UTC
Wind 20 kt from the East
Visibility: 1000 m
Blowing dust

TAF: DRRN 212300Z 2200/2306 06010KT 2000 DU NSC TEMPO 2206/2212 10020KT 1000 BLDU

Weather observations and forecasts of more than 4000 airports (METAR and TAF reports).

The available stations are represented by yellow and red dots on the map.

Hover mouse over dot to see the name of the station.

Then click to see weather observations and forecasts.

To change the map : click on the green buttons with a black cross to zoom in, on the green button with a dash to zoom out, or on the green arrows for adjacent maps.


METAR-TAF: